Time;durP1;ratioP1;P1;durP2;ratioP2;P2;SDS_P1;SDS_P2;PMS_P1;PMS_P2;Temp;Humidity;BMP_temperature;BMP_pressure;BME280_temperature;BME280_humidity;BME280_pressure;Samples;Min_cycle;Max_cycle;Signal;HPM_P1;HPM_P2
2022/01/08 00:02:12;;;;;;;23.10;6.20;;;;;;;-0.24;65.31;100047.55;52994;1271;1016632;-61
2022/01/08 00:04:43;;;;;;;20.80;4.90;;;;;;;-0.21;65.32;100053.30;52861;1271;1018511;-62
2022/01/08 00:07:15;;;;;;;16.40;5.20;;;;;;;-0.19;65.30;100050.46;52841;1271;1016800;-60
2022/01/08 00:09:46;;;;;;;17.60;4.90;;;;;;;-0.17;65.12;100048.79;53052;1271;1016567;-62
2022/01/08 00:12:17;;;;;;;16.00;4.10;;;;;;;-0.13;65.42;100054.39;52841;1271;1016526;-61
2022/01/08 00:14:48;;;;;;;21.10;5.30;;;;;;;-0.11;65.35;100053.65;52970;1271;1018150;-61
2022/01/08 00:17:22;;;;;;;18.50;4.90;;;;;;;-0.09;65.18;100056.85;52909;1272;1020013;-61
2022/01/08 00:19:54;;;;;;;15.00;4.40;;;;;;;-0.08;65.46;100053.61;52984;1271;1016267;-61
2022/01/08 00:22:25;;;;;;;17.20;4.10;;;;;;;-0.06;65.25;100049.59;52978;1271;1015997;-61
2022/01/08 00:24:58;;;;;;;16.60;3.60;;;;;;;-0.05;65.39;100047.39;52941;1271;1018584;-61
2022/01/08 00:27:29;;;;;;;16.70;3.70;;;;;;;-0.03;65.47;100053.70;52989;1271;1016430;-61
2022/01/08 00:30:00;;;;;;;21.60;5.10;;;;;;;-0.02;65.42;100054.08;53051;1271;1016058;-61
2022/01/08 00:32:33;;;;;;;17.50;4.70;;;;;;;-0.00;65.46;100056.67;52909;1271;1016545;-62
2022/01/08 00:35:04;;;;;;;19.70;5.30;;;;;;;0.00;65.61;100053.91;52933;1271;1016273;-61
2022/01/08 00:37:37;;;;;;;17.10;4.40;;;;;;;0.03;65.71;100054.04;53007;1271;1016369;-62
2022/01/08 00:40:12;;;;;;;16.90;4.30;;;;;;;0.04;65.87;100052.21;53152;1271;1016967;-62
2022/01/08 00:42:43;;;;;;;14.80;3.50;;;;;;;0.04;65.90;100046.72;52978;1271;1016412;-61
2022/01/08 00:45:16;;;;;;;20.00;4.10;;;;;;;0.03;65.97;100043.91;53485;1271;1016172;-61
2022/01/08 00:47:47;;;;;;;20.70;3.80;;;;;;;0.02;66.22;100041.65;53072;1271;1015820;-60
2022/01/08 00:50:21;;;;;;;17.10;4.90;;;;;;;0.01;66.35;100045.11;52972;1271;1016205;-64
2022/01/08 00:52:52;;;;;;;12.90;4.20;;;;;;;-0.00;66.48;100049.29;52925;1271;1016499;-61
2022/01/08 00:55:24;;;;;;;14.60;4.30;;;;;;;-0.01;66.72;100044.59;52883;1271;1016374;-62
2022/01/08 00:57:55;;;;;;;16.70;3.90;;;;;;;0.01;66.83;100047.70;53005;1272;1018671;-61
2022/01/08 01:00:26;;;;;;;20.00;6.30;;;;;;;0.02;67.00;100046.59;52932;1271;1016291;-62
2022/01/08 01:02:57;;;;;;;22.20;7.50;;;;;;;0.02;67.01;100042.45;52968;1271;1016262;-62
2022/01/08 01:05:28;;;;;;;19.30;7.40;;;;;;;0.02;67.05;100044.86;52912;1271;1016440;-61
2022/01/08 01:07:59;;;;;;;22.00;8.00;;;;;;;0.03;67.12;100040.30;52929;1271;1019033;-61
2022/01/08 01:10:31;;;;;;;28.10;12.60;;;;;;;0.03;67.18;100038.11;52861;1271;1020048;-60
2022/01/08 01:13:02;;;;;;;69.20;44.60;;;;;;;0.04;67.29;100035.66;52956;1271;1016377;-62
2022/01/08 01:15:33;;;;;;;42.30;23.90;;;;;;;0.04;67.31;100030.96;52925;1271;1016333;-62
2022/01/08 01:18:04;;;;;;;30.40;12.30;;;;;;;0.04;67.42;100021.00;52920;1271;1016083;-61
2022/01/08 01:20:35;;;;;;;37.10;20.10;;;;;;;0.03;67.55;100020.62;52970;1271;1023013;-61
2022/01/08 01:23:11;;;;;;;38.60;21.20;;;;;;;0.01;67.60;100022.92;52857;1271;1016687;-61
2022/01/08 01:25:48;;;;;;;41.70;21.30;;;;;;;-0.01;67.97;100020.52;52919;1271;1016440;-61
2022/01/08 01:28:32;;;;;;;38.00;18.00;;;;;;;-0.02;68.10;100020.36;52860;1271;1019797;-61
2022/01/08 01:48:00;;;;;;;137.20;70.80;;;;;;;-0.03;69.10;100013.10;52756;1276;1016921;-61
2022/01/08 01:50:32;;;;;;;100.50;47.30;;;;;;;-0.02;69.13;100013.93;52785;1277;1016746;-59
2022/01/08 01:53:03;;;;;;;37.30;13.90;;;;;;;0.00;69.21;100008.35;52756;1277;1016486;-60
2022/01/08 01:55:35;;;;;;;19.30;5.60;;;;;;;0.02;69.12;100004.88;52774;1277;1016466;-61
2022/01/08 01:58:06;;;;;;;14.50;4.30;;;;;;;0.01;69.34;100004.35;52829;1277;1016547;-61
2022/01/08 02:00:39;;;;;;;18.40;5.00;;;;;;;-0.00;69.41;100005.77;52670;1277;1018574;-61
2022/01/08 02:03:10;;;;;;;23.90;5.30;;;;;;;0.02;69.68;99997.83;52692;1276;1016683;-61
2022/01/08 02:05:42;;;;;;;19.30;5.20;;;;;;;0.02;69.69;99990.61;52625;1276;1016554;-59
2022/01/08 02:08:14;;;;;;;17.30;5.20;;;;;;;-0.00;69.99;99988.36;52550;1278;1016205;-60
2022/01/08 02:10:45;;;;;;;17.90;4.80;;;;;;;-0.02;69.91;99990.02;52613;1276;1016110;-59
2022/01/08 02:13:24;;;;;;;19.20;4.70;;;;;;;-0.02;70.09;99982.66;52674;1277;1018902;-61
2022/01/08 02:15:58;;;;;;;17.80;4.40;;;;;;;-0.01;70.28;99976.23;52774;1276;1016417;-62
2022/01/08 02:18:29;;;;;;;16.20;4.50;;;;;;;-0.01;70.24;99972.92;52869;1277;1016624;-62
2022/01/08 02:21:03;;;;;;;14.10;4.90;;;;;;;-0.02;70.24;99970.04;52955;1271;1016370;-61
2022/01/08 02:23:34;;;;;;;21.90;6.20;;;;;;;-0.04;70.51;99969.36;52897;1271;1016020;-59
2022/01/08 02:26:07;;;;;;;21.70;6.00;;;;;;;-0.04;70.62;99972.11;52963;1271;1015933;-61
2022/01/08 02:28:39;;;;;;;14.00;4.50;;;;;;;-0.05;70.65;99975.41;52868;1271;1016687;-61
2022/01/08 02:31:22;;;;;;;19.70;5.70;;;;;;;-0.04;70.65;99977.11;52995;1271;1015938;-62
2022/01/08 02:33:54;;;;;;;22.20;5.10;;;;;;;-0.03;70.66;99976.72;53042;1271;1016324;-62
2022/01/08 02:36:25;;;;;;;17.80;5.10;;;;;;;-0.05;70.67;99978.00;52968;1271;1015609;-62
2022/01/08 02:38:56;;;;;;;19.90;5.70;;;;;;;-0.07;70.71;99981.63;52954;1271;1016258;-61
2022/01/08 02:41:27;;;;;;;26.60;9.60;;;;;;;-0.08;70.74;99975.61;52968;1272;1016619;-62
2022/01/08 02:43:59;;;;;;;20.90;6.40;;;;;;;-0.06;70.90;99971.52;52880;1271;1016070;-60
2022/01/08 02:46:30;;;;;;;22.20;7.10;;;;;;;-0.04;71.02;99970.05;53011;1271;1016487;-60
2022/01/08 02:49:01;;;;;;;24.40;8.80;;;;;;;0.01;70.95;99958.02;52977;1271;1016788;-61
2022/01/08 02:51:35;;;;;;;26.20;11.00;;;;;;;0.03;71.09;99962.13;52936;1271;1016375;-62
2022/01/08 02:54:11;;;;;;;23.90;7.90;;;;;;;0.02;71.14;99960.89;52962;1271;1020187;-60
2022/01/08 02:56:43;;;;;;;26.50;8.30;;;;;;;-0.01;71.29;99957.16;53028;1271;1016407;-60
2022/01/08 02:59:15;;;;;;;19.40;6.20;;;;;;;-0.01;71.36;99957.33;53008;1271;1016478;-61
2022/01/08 03:01:47;;;;;;;17.00;6.30;;;;;;;-0.05;71.40;99952.12;52924;1271;1016029;-60
2022/01/08 03:04:17;;;;;;;17.90;5.10;;;;;;;-0.06;71.49;99952.61;52981;1271;1018459;-60
2022/01/08 03:06:49;;;;;;;22.00;6.00;;;;;;;-0.07;71.58;99952.55;52970;1271;1016330;-61
2022/01/08 03:09:21;;;;;;;29.20;11.80;;;;;;;-0.08;71.68;99952.17;52910;1271;1016520;-59
2022/01/08 03:11:52;;;;;;;26.20;10.20;;;;;;;-0.08;71.78;99953.67;53052;1271;1016401;-61
2022/01/08 03:14:24;;;;;;;20.80;5.70;;;;;;;-0.08;71.79;99956.08;52886;1271;1016611;-62
2022/01/08 03:16:55;;;;;;;28.80;11.70;;;;;;;-0.09;71.87;99949.67;52917;1271;1015614;-61
2022/01/08 03:19:27;;;;;;;23.00;10.30;;;;;;;-0.12;71.85;99949.48;52940;1271;1016735;-61
2022/01/08 03:22:03;;;;;;;40.20;16.50;;;;;;;-0.12;71.90;99948.46;52849;1274;1016334;-60
2022/01/08 03:24:34;;;;;;;17.10;5.20;;;;;;;-0.09;71.99;99939.65;52954;1271;1017185;-60
2022/01/08 03:27:06;;;;;;;28.50;11.60;;;;;;;-0.09;72.00;99933.99;53401;1271;1016261;-61
2022/01/08 03:29:37;;;;;;;44.20;20.20;;;;;;;-0.10;72.09;99937.69;53142;1271;1016573;-61
2022/01/08 03:32:09;;;;;;;45.80;24.30;;;;;;;-0.10;72.02;99937.77;52958;1271;1016206;-61
2022/01/08 03:34:40;;;;;;;26.40;8.60;;;;;;;-0.10;71.94;99940.27;52888;1271;1016777;-59
2022/01/08 03:37:12;;;;;;;25.20;6.90;;;;;;;-0.10;72.12;99934.17;52941;1272;1016335;-61
2022/01/08 03:39:43;;;;;;;28.50;11.80;;;;;;;-0.09;72.13;99930.94;53021;1271;1017886;-60
2022/01/08 03:42:14;;;;;;;31.80;13.20;;;;;;;-0.08;72.20;99928.88;52901;1271;1016725;-62
2022/01/08 03:44:45;;;;;;;18.40;6.50;;;;;;;-0.07;72.31;99925.19;53016;1271;1016603;-60
2022/01/08 03:47:29;;;;;;;21.40;7.80;;;;;;;-0.06;72.19;99923.77;52924;1271;1016749;-61
2022/01/08 03:50:01;;;;;;;24.50;8.80;;;;;;;-0.04;72.33;99925.06;52855;1271;1016422;-60
2022/01/08 03:52:33;;;;;;;45.80;16.20;;;;;;;-0.03;72.41;99924.73;52834;1271;1016575;-60
2022/01/08 03:55:05;;;;;;;49.70;22.10;;;;;;;-0.04;72.27;99921.05;52913;1271;1016706;-61
2022/01/08 03:57:36;;;;;;;23.30;8.90;;;;;;;-0.02;72.36;99910.84;52919;1271;1016369;-61
2022/01/08 04:00:09;;;;;;;19.60;7.20;;;;;;;-0.03;72.50;99911.02;52893;1271;1015982;-60
2022/01/08 04:02:41;;;;;;;32.40;14.50;;;;;;;-0.03;72.44;99907.41;52927;1271;1016840;-61
2022/01/08 04:05:12;;;;;;;22.40;8.00;;;;;;;-0.02;72.40;99911.00;52961;1271;1016537;-61
2022/01/08 04:07:43;;;;;;;23.20;7.20;;;;;;;0.02;72.48;99913.06;53042;1271;1016540;-61
2022/01/08 04:10:14;;;;;;;22.30;8.30;;;;;;;0.06;72.54;99910.03;52927;1271;1019356;-61
2022/01/08 04:12:49;;;;;;;24.50;9.30;;;;;;;0.08;72.62;99909.05;52947;1271;1016229;-61
2022/01/08 04:15:37;;;;;;;28.80;9.80;;;;;;;0.11;72.53;99905.15;52885;1271;1016258;-61
2022/01/08 04:18:09;;;;;;;22.00;7.10;;;;;;;0.14;72.61;99902.84;52863;1271;1016414;-61
2022/01/08 04:21:09;;;;;;;19.30;6.10;;;;;;;0.14;72.63;99898.98;52962;1271;1016421;-61
2022/01/08 04:23:40;;;;;;;20.40;6.40;;;;;;;0.15;72.59;99892.54;52984;1271;1016182;-60
2022/01/08 04:26:11;;;;;;;23.50;6.30;;;;;;;0.14;72.52;99891.92;52892;1271;1016310;-61
2022/01/08 04:28:41;;;;;;;20.10;6.00;;;;;;;0.14;72.55;99888.48;52921;1271;1016921;-60
2022/01/08 04:31:13;;;;;;;19.20;5.90;;;;;;;0.13;72.57;99887.62;52838;1272;1016356;-61
2022/01/08 04:33:45;;;;;;;16.40;4.80;;;;;;;0.13;72.64;99884.25;52921;1271;1016503;-61
2022/01/08 04:36:19;;;;;;;18.90;6.10;;;;;;;0.13;72.70;99888.02;52974;1271;1016660;-61
2022/01/08 04:38:50;;;;;;;22.10;6.50;;;;;;;0.14;72.52;99886.06;52977;1271;1016368;-59
2022/01/08 04:41:21;;;;;;;19.40;5.70;;;;;;;0.14;72.50;99886.91;52903;1271;1016408;-60
2022/01/08 04:43:52;;;;;;;20.90;7.30;;;;;;;0.17;72.55;99890.87;52942;1271;1016325;-60
2022/01/08 04:46:23;;;;;;;17.80;5.40;;;;;;;0.21;72.39;99892.53;52975;1271;1016459;-60
2022/01/08 04:48:54;;;;;;;16.80;4.60;;;;;;;0.22;72.32;99891.48;52995;1271;1015831;-61
2022/01/08 04:51:27;;;;;;;15.40;5.10;;;;;;;0.23;72.31;99889.20;52880;1271;1016677;-60
2022/01/08 04:53:58;;;;;;;17.50;4.90;;;;;;;0.21;72.34;99884.30;52981;1271;1016252;-61
2022/01/08 04:56:29;;;;;;;12.80;4.10;;;;;;;0.21;72.38;99884.44;52932;1271;1019893;-60
2022/01/08 04:59:01;;;;;;;18.80;5.40;;;;;;;0.19;72.19;99887.92;52948;1271;1016529;-60
2022/01/08 05:01:32;;;;;;;15.90;5.70;;;;;;;0.20;72.28;99892.23;52934;1271;1016733;-60
2022/01/08 05:04:04;;;;;;;15.50;3.60;;;;;;;0.22;72.37;99894.40;52915;1271;1016461;-61
2022/01/08 05:06:35;;;;;;;17.90;3.90;;;;;;;0.24;72.28;99894.88;52944;1271;1017033;-61
2022/01/08 05:09:06;;;;;;;15.80;4.20;;;;;;;0.27;72.24;99895.31;52915;1271;1016119;-60
2022/01/08 05:11:37;;;;;;;15.80;4.60;;;;;;;0.30;72.41;99893.30;52970;1271;1015780;-60
2022/01/08 05:14:10;;;;;;;15.70;4.80;;;;;;;0.31;72.24;99891.88;52908;1271;1016200;-61
2022/01/08 05:16:44;;;;;;;18.60;4.30;;;;;;;0.30;72.16;99893.93;52999;1271;1016648;-63
2022/01/08 05:19:22;;;;;;;16.50;5.00;;;;;;;0.32;72.24;99896.95;52964;1271;1016831;-61
2022/01/08 05:21:57;;;;;;;18.50;5.10;;;;;;;0.34;72.23;99889.01;52980;1269;1016728;-62
2022/01/08 05:24:28;;;;;;;20.20;4.90;;;;;;;0.33;72.28;99888.92;52928;1271;1016135;-61
2022/01/08 05:26:59;;;;;;;14.10;4.20;;;;;;;0.34;72.43;99885.78;52958;1271;1016496;-60
2022/01/08 05:29:31;;;;;;;18.20;4.90;;;;;;;0.32;72.35;99882.83;52869;1271;1016909;-61
2022/01/08 05:32:02;;;;;;;16.90;4.60;;;;;;;0.33;72.42;99879.92;52954;1271;1015783;-61
2022/01/08 05:34:33;;;;;;;16.80;4.30;;;;;;;0.34;72.42;99882.89;52909;1271;1016267;-60
2022/01/08 05:37:06;;;;;;;19.00;4.70;;;;;;;0.36;72.42;99884.02;52966;1271;1016744;-61
2022/01/08 05:39:38;;;;;;;15.40;4.30;;;;;;;0.36;72.46;99882.85;52854;1271;1017364;-62
2022/01/08 05:42:09;;;;;;;19.20;4.90;;;;;;;0.37;72.48;99881.02;52886;1271;1016657;-61
2022/01/08 05:44:41;;;;;;;17.20;4.60;;;;;;;0.40;72.79;99879.64;52931;1271;1016498;-62
2022/01/08 05:47:13;;;;;;;18.10;4.90;;;;;;;0.43;72.64;99875.98;52910;1271;1016123;-62
2022/01/08 05:49:44;;;;;;;15.40;4.20;;;;;;;0.44;72.53;99875.56;52902;1271;1016048;-60
2022/01/08 05:52:16;;;;;;;14.80;4.60;;;;;;;0.42;72.59;99880.48;52958;1271;1016154;-60
2022/01/08 05:54:47;;;;;;;15.10;4.80;;;;;;;0.41;72.52;99880.57;52850;1271;1016646;-61
2022/01/08 05:57:18;;;;;;;19.00;5.60;;;;;;;0.41;72.60;99884.80;52956;1271;1016665;-60
2022/01/08 05:59:49;;;;;;;20.50;5.00;;;;;;;0.44;72.58;99883.80;53010;1271;1016582;-61
2022/01/08 06:02:20;;;;;;;20.40;5.30;;;;;;;0.46;72.74;99885.65;52965;1271;1019404;-61
2022/01/08 06:04:51;;;;;;;17.10;5.50;;;;;;;0.48;72.83;99888.59;52974;1271;1016688;-61
2022/01/08 06:07:23;;;;;;;17.90;5.50;;;;;;;0.50;72.69;99889.88;53164;1271;1016671;-60
2022/01/08 06:09:53;;;;;;;17.90;5.10;;;;;;;0.49;72.76;99892.34;53484;1271;1016392;-61
2022/01/08 06:12:24;;;;;;;15.80;5.40;;;;;;;0.52;72.80;99892.21;53034;1271;1016401;-60
2022/01/08 06:14:55;;;;;;;18.80;5.80;;;;;;;0.55;72.85;99889.16;52905;1271;1016622;-60
2022/01/08 06:17:27;;;;;;;16.50;5.60;;;;;;;0.58;72.79;99888.96;52927;1271;1016571;-60
2022/01/08 06:19:58;;;;;;;14.90;5.40;;;;;;;0.58;72.80;99887.46;53012;1271;1016290;-60
2022/01/08 06:22:29;;;;;;;19.30;6.60;;;;;;;0.58;72.88;99890.00;52841;1271;1016655;-60
2022/01/08 06:25:00;;;;;;;19.80;6.00;;;;;;;0.57;72.80;99892.45;52980;1271;1016218;-59
2022/01/08 06:27:32;;;;;;;22.80;7.00;;;;;;;0.56;72.94;99889.73;52868;1271;1016323;-61
2022/01/08 06:30:04;;;;;;;20.30;6.20;;;;;;;0.55;73.03;99893.41;52845;1271;1015911;-62
2022/01/08 06:32:35;;;;;;;24.70;7.30;;;;;;;0.57;73.08;99897.31;52961;1271;1019199;-60
2022/01/08 06:35:07;;;;;;;24.60;7.70;;;;;;;0.59;73.19;99896.33;52920;1271;1016782;-60
2022/01/08 06:37:38;;;;;;;23.30;8.30;;;;;;;0.60;73.07;99897.09;52963;1271;1016128;-61
2022/01/08 06:40:12;;;;;;;25.20;8.30;;;;;;;0.62;73.09;99904.90;52820;1271;1019021;-61
2022/01/08 06:42:43;;;;;;;20.60;6.80;;;;;;;0.63;73.08;99913.91;52940;1271;1016602;-61
2022/01/08 06:45:14;;;;;;;19.90;6.70;;;;;;;0.63;73.10;99908.34;52638;1271;1020396;-60
2022/01/08 06:47:45;;;;;;;22.70;6.80;;;;;;;0.64;73.11;99907.53;52965;1271;1016017;-63
2022/01/08 06:50:17;;;;;;;22.00;6.40;;;;;;;0.66;73.16;99914.16;52901;1271;1016613;-61
2022/01/08 06:52:48;;;;;;;22.00;7.40;;;;;;;0.68;73.13;99911.30;52928;1271;1015902;-61
2022/01/08 06:55:19;;;;;;;20.80;6.50;;;;;;;0.71;73.15;99914.24;52994;1271;1016399;-61
2022/01/08 06:57:50;;;;;;;20.50;5.30;;;;;;;0.72;73.23;99910.14;52916;1271;1016726;-61
2022/01/08 07:00:21;;;;;;;21.30;6.60;;;;;;;0.74;73.26;99905.40;52983;1271;1016658;-61
2022/01/08 07:02:52;;;;;;;20.30;7.30;;;;;;;0.74;73.23;99902.34;52885;1271;1017121;-61
2022/01/08 07:05:23;;;;;;;19.50;6.70;;;;;;;0.73;73.14;99908.14;52906;1271;1016255;-61
2022/01/08 07:07:55;;;;;;;23.10;7.00;;;;;;;0.75;73.09;99909.93;52833;1271;1015936;-61
2022/01/08 07:10:25;;;;;;;24.00;7.30;;;;;;;0.76;73.21;99911.86;52890;1271;1016585;-63
2022/01/08 07:12:56;;;;;;;22.60;7.80;;;;;;;0.76;73.10;99909.52;52698;1271;1018340;-63
2022/01/08 07:15:28;;;;;;;25.20;8.00;;;;;;;0.76;73.14;99910.62;52797;1271;1016056;-63
2022/01/08 07:17:58;;;;;;;23.90;8.20;;;;;;;0.75;73.25;99916.29;52749;1271;1016500;-63
2022/01/08 07:20:30;;;;;;;22.30;7.90;;;;;;;0.75;73.19;99920.05;52920;1271;1016533;-62
2022/01/08 07:23:00;;;;;;;24.00;7.60;;;;;;;0.77;73.33;99924.73;52816;1271;1016306;-62
2022/01/08 07:25:32;;;;;;;23.70;8.20;;;;;;;0.81;73.36;99925.67;52860;1271;1016259;-63
2022/01/08 07:28:03;;;;;;;21.10;8.10;;;;;;;0.80;73.33;99927.02;52609;1271;1016527;-62
2022/01/08 07:30:34;;;;;;;24.50;8.20;;;;;;;0.77;73.32;99925.89;52546;1271;1016665;-63
2022/01/08 07:33:06;;;;;;;23.50;9.20;;;;;;;0.77;73.37;99922.05;52682;1271;1017660;-61
2022/01/08 07:35:37;;;;;;;20.90;8.90;;;;;;;0.81;73.55;99927.63;52763;1271;1016819;-62
2022/01/08 07:38:09;;;;;;;27.50;8.40;;;;;;;0.82;73.34;99927.86;52780;1271;1016272;-61
2022/01/08 07:40:39;;;;;;;27.10;10.70;;;;;;;0.81;73.53;99928.10;52661;1271;1016028;-61
2022/01/08 07:43:10;;;;;;;35.20;11.40;;;;;;;0.84;73.55;99920.98;52789;1271;1016538;-61
2022/01/08 07:45:41;;;;;;;39.90;18.40;;;;;;;0.86;73.40;99923.45;52812;1271;1016542;-62
2022/01/08 07:48:13;;;;;;;36.20;13.80;;;;;;;0.87;73.45;99926.50;52897;1272;1016612;-62
2022/01/08 07:50:44;;;;;;;28.80;9.90;;;;;;;0.86;73.47;99928.65;52800;1271;1016585;-62
2022/01/08 07:53:15;;;;;;;26.00;10.50;;;;;;;0.87;73.55;99933.57;52850;1271;1017847;-62
2022/01/08 07:55:46;;;;;;;27.40;10.20;;;;;;;0.87;73.52;99935.00;52820;1271;1015963;-62
2022/01/08 07:58:20;;;;;;;27.00;10.10;;;;;;;0.88;73.57;99934.89;52903;1273;1016387;-62
2022/01/08 08:00:53;;;;;;;26.30;10.10;;;;;;;0.90;73.53;99933.36;52869;1271;1016725;-62
2022/01/08 08:03:24;;;;;;;27.60;10.90;;;;;;;0.91;73.51;99933.67;52867;1271;1017796;-62
2022/01/08 08:05:55;;;;;;;29.40;11.70;;;;;;;0.90;73.41;99927.54;52937;1271;1018764;-62
2022/01/08 08:08:26;;;;;;;26.30;9.20;;;;;;;0.92;73.56;99927.89;52928;1271;1016607;-62
2022/01/08 08:10:57;;;;;;;22.70;9.50;;;;;;;0.91;73.46;99922.27;52956;1271;1015868;-62
2022/01/08 08:13:28;;;;;;;23.20;8.40;;;;;;;0.90;73.46;99918.83;53007;1271;1016515;-62
2022/01/08 08:16:00;;;;;;;24.50;8.60;;;;;;;0.90;73.43;99921.73;52862;1271;1015932;-61
2022/01/08 08:18:31;;;;;;;24.10;9.00;;;;;;;0.90;73.51;99921.66;53032;1271;1016533;-62
2022/01/08 08:21:02;;;;;;;26.60;8.60;;;;;;;0.89;73.56;99923.00;52817;1271;1016608;-62
2022/01/08 08:23:33;;;;;;;28.10;10.20;;;;;;;0.92;73.60;99921.31;52875;1273;1016032;-62
2022/01/08 08:26:04;;;;;;;23.20;8.50;;;;;;;0.92;73.59;99926.95;52812;1271;1016419;-62
2022/01/08 08:28:35;;;;;;;21.90;8.20;;;;;;;0.92;73.69;99926.25;52767;1271;1016432;-62
2022/01/08 08:31:07;;;;;;;27.70;8.80;;;;;;;0.92;73.74;99924.98;52853;1271;1016093;-62
2022/01/08 08:33:39;;;;;;;24.90;8.30;;;;;;;0.93;73.68;99923.34;52688;1271;1016516;-62
2022/01/08 08:36:11;;;;;;;22.10;8.00;;;;;;;0.93;73.73;99920.65;52797;1271;1016191;-62
2022/01/08 08:38:42;;;;;;;25.40;9.20;;;;;;;0.95;73.82;99918.67;52754;1270;1016662;-63
2022/01/08 08:41:14;;;;;;;21.90;8.50;;;;;;;0.97;73.77;99918.39;52901;1271;1018846;-62
2022/01/08 08:43:45;;;;;;;24.00;8.30;;;;;;;0.98;73.74;99917.88;52785;1271;1016427;-62
2022/01/08 08:46:17;;;;;;;27.30;9.50;;;;;;;1.00;73.72;99921.39;52827;1271;1015929;-62
2022/01/08 08:48:48;;;;;;;25.70;10.60;;;;;;;1.01;73.84;99921.36;52930;1271;1016415;-62
2022/01/08 08:51:20;;;;;;;26.30;9.20;;;;;;;1.05;73.84;99920.81;53153;1271;1016462;-62
2022/01/08 08:53:51;;;;;;;28.40;9.90;;;;;;;1.09;73.95;99912.49;53080;1271;1016608;-62
2022/01/08 08:56:22;;;;;;;28.50;8.70;;;;;;;1.12;73.92;99913.85;52890;1271;1016357;-62
2022/01/08 08:58:53;;;;;;;28.70;9.70;;;;;;;1.16;73.93;99911.95;52674;1272;1016346;-62
2022/01/08 09:01:25;;;;;;;27.00;10.30;;;;;;;1.19;74.01;99914.80;52846;1273;1016101;-62
2022/01/08 09:03:56;;;;;;;27.60;10.50;;;;;;;1.22;73.93;99914.51;52976;1272;1016429;-62
2022/01/08 09:06:27;;;;;;;25.20;9.90;;;;;;;1.26;74.05;99913.70;52785;1272;1016296;-61
2022/01/08 09:08:58;;;;;;;25.00;9.70;;;;;;;1.30;74.05;99914.02;52865;1272;1019040;-62
2022/01/08 09:11:30;;;;;;;30.20;10.30;;;;;;;1.32;73.94;99919.80;52919;1271;1018206;-62
2022/01/08 09:14:02;;;;;;;28.80;10.30;;;;;;;1.35;73.98;99921.94;52926;1271;1016091;-62
2022/01/08 09:16:34;;;;;;;26.70;10.00;;;;;;;1.38;74.03;99923.13;52891;1271;1015913;-62
2022/01/08 09:19:06;;;;;;;27.60;10.50;;;;;;;1.41;74.02;99918.59;52888;1271;1018263;-62
2022/01/08 09:21:37;;;;;;;29.30;12.40;;;;;;;1.47;74.04;99915.39;52867;1271;1016011;-62
2022/01/08 09:24:08;;;;;;;27.10;10.40;;;;;;;1.50;73.92;99914.23;52878;1271;1016594;-62
2022/01/08 09:26:40;;;;;;;27.10;10.80;;;;;;;1.54;73.83;99915.41;52615;1272;1016423;-62
2022/01/08 09:29:11;;;;;;;32.30;12.30;;;;;;;1.57;73.92;99919.35;52751;1271;1018250;-63
2022/01/08 09:31:42;;;;;;;34.60;12.70;;;;;;;1.61;73.98;99920.90;52877;1271;1015864;-62
2022/01/08 09:34:14;;;;;;;32.80;13.00;;;;;;;1.64;73.89;99923.04;52767;1271;1016694;-62
2022/01/08 09:36:45;;;;;;;29.60;11.30;;;;;;;1.66;73.89;99919.15;52823;1271;1019043;-62
2022/01/08 09:39:17;;;;;;;33.50;12.80;;;;;;;1.68;73.78;99918.50;52817;1271;1016065;-63
2022/01/08 09:41:48;;;;;;;34.30;12.50;;;;;;;1.69;73.80;99915.79;52777;1271;1016460;-63
2022/01/08 09:44:19;;;;;;;31.40;12.00;;;;;;;1.70;73.77;99914.83;52798;1271;1018741;-62
2022/01/08 09:46:50;;;;;;;30.10;11.90;;;;;;;1.72;73.81;99917.84;52797;1271;1018472;-63
2022/01/08 09:49:23;;;;;;;30.30;8.80;;;;;;;1.74;73.79;99920.40;52990;1271;1016331;-62
2022/01/08 09:51:55;;;;;;;25.50;10.30;;;;;;;1.74;73.77;99920.72;52857;1271;1016248;-63
2022/01/08 09:54:27;;;;;;;25.50;10.20;;;;;;;1.75;73.78;99922.10;52833;1271;1016402;-63
2022/01/08 09:56:58;;;;;;;29.20;9.80;;;;;;;1.77;73.72;99918.66;52858;1272;1017816;-62
2022/01/08 09:59:29;;;;;;;29.10;10.30;;;;;;;1.77;73.58;99923.31;52847;1271;1016482;-62
2022/01/08 10:02:02;;;;;;;24.00;9.00;;;;;;;1.76;73.61;99919.56;52722;1271;1018207;-62
2022/01/08 10:04:35;;;;;;;30.20;10.60;;;;;;;1.76;73.63;99914.83;52835;1271;1019727;-63
2022/01/08 10:07:24;;;;;;;28.60;10.20;;;;;;;1.78;73.74;99918.33;52874;1271;1016800;-62
2022/01/08 10:10:10;;;;;;;27.50;9.60;;;;;;;1.82;73.68;99918.17;52851;1272;1016278;-63
2022/01/08 10:12:50;;;;;;;25.80;9.60;;;;;;;1.85;73.95;99916.77;52778;1273;1016551;-64
2022/01/08 10:18:26;;;;;;;28.00;9.40;;;;;;;1.90;73.79;99915.30;52881;1271;1016692;-63
2022/01/08 10:21:00;;;;;;;27.80;10.60;;;;;;;1.92;73.64;99914.96;53321;1271;1016342;-63
2022/01/08 10:23:32;;;;;;;25.40;9.10;;;;;;;1.91;73.60;99913.95;53018;1271;1016729;-63
2022/01/08 10:26:06;;;;;;;29.20;9.70;;;;;;;1.92;73.66;99914.16;52864;1271;1016377;-63
2022/01/08 10:28:43;;;;;;;29.00;10.10;;;;;;;1.91;73.63;99915.35;52889;1271;1016489;-63
2022/01/08 10:31:17;;;;;;;27.30;8.90;;;;;;;1.91;73.42;99916.30;52848;1271;1016587;-63
2022/01/08 10:33:51;;;;;;;28.40;9.30;;;;;;;1.91;73.56;99913.25;52838;1271;1015772;-63
2022/01/08 10:36:27;;;;;;;26.00;9.10;;;;;;;1.91;73.58;99909.07;52819;1271;1018905;-63
2022/01/08 10:39:00;;;;;;;28.30;9.70;;;;;;;1.91;73.58;99899.08;52707;1271;1016745;-63
2022/01/08 10:41:32;;;;;;;25.40;8.90;;;;;;;1.93;73.63;99895.97;52864;1271;1016387;-63
2022/01/08 10:44:13;;;;;;;28.90;9.90;;;;;;;1.96;73.80;99898.57;52743;1271;1016374;-63
2022/01/08 10:46:55;;;;;;;28.80;9.30;;;;;;;2.02;73.78;99895.92;52890;1272;1016597;-63
2022/01/08 10:49:32;;;;;;;27.40;9.90;;;;;;;2.06;73.85;99891.49;52907;1271;1016197;-63
2022/01/08 10:52:06;;;;;;;35.50;12.30;;;;;;;2.12;73.82;99892.21;52831;1272;1015883;-63
2022/01/08 10:54:39;;;;;;;31.80;11.70;;;;;;;2.18;73.75;99891.45;52776;1271;1016647;-63
2022/01/08 10:57:12;;;;;;;33.10;11.40;;;;;;;2.22;73.71;99887.95;52850;1271;1016061;-63
2022/01/08 10:59:44;;;;;;;31.10;10.70;;;;;;;2.26;73.71;99887.77;52808;1271;1016690;-62
2022/01/08 11:02:16;;;;;;;29.50;9.70;;;;;;;2.31;73.57;99891.73;52655;1271;1018707;-62
2022/01/08 11:04:51;;;;;;;31.80;11.80;;;;;;;2.34;73.57;99884.90;52715;1271;1015885;-62
2022/01/08 11:07:24;;;;;;;41.00;15.80;;;;;;;2.39;73.63;99884.05;52633;1271;1017566;-62
2022/01/08 11:09:59;;;;;;;33.30;13.30;;;;;;;2.43;73.61;99881.20;52852;1271;1016565;-62
2022/01/08 11:12:35;;;;;;;33.90;12.20;;;;;;;2.48;73.48;99881.86;52689;1271;1016389;-63
2022/01/08 11:15:35;;;;;;;32.10;11.80;;;;;;;2.53;73.58;99880.23;52770;1271;1018692;-62
2022/01/08 11:18:06;;;;;;;29.60;11.30;;;;;;;2.59;73.50;99874.41;52590;1271;1016723;-61
2022/01/08 11:20:37;;;;;;;34.80;12.50;;;;;;;2.64;73.52;99870.73;52600;1271;1016289;-62
2022/01/08 11:23:11;;;;;;;31.60;12.60;;;;;;;2.68;73.34;99863.08;52686;1271;1017103;-62
2022/01/08 11:25:42;;;;;;;27.00;9.50;;;;;;;2.71;73.31;99864.08;52632;1273;1018576;-62
2022/01/08 11:28:15;;;;;;;26.40;9.30;;;;;;;2.76;73.32;99860.88;52831;1272;1016260;-62
2022/01/08 11:30:48;;;;;;;27.90;9.80;;;;;;;2.78;73.14;99856.35;52805;1273;1016035;-62
2022/01/08 11:33:24;;;;;;;27.40;9.20;;;;;;;2.79;72.99;99853.16;53330;1271;1020949;-62
2022/01/08 11:35:56;;;;;;;33.70;10.00;;;;;;;2.81;72.99;99856.34;53268;1271;1016413;-62
2022/01/08 11:38:29;;;;;;;27.40;9.00;;;;;;;2.83;72.98;99853.52;52835;1271;1016044;-62
2022/01/08 11:41:00;;;;;;;26.70;9.90;;;;;;;2.85;73.02;99849.36;52810;1273;1016368;-62
2022/01/08 11:43:32;;;;;;;26.40;9.30;;;;;;;2.89;73.07;99848.71;52740;1272;1016910;-62
2022/01/08 11:46:05;;;;;;;25.60;8.30;;;;;;;2.91;72.83;99846.11;52841;1272;1016153;-62
2022/01/08 11:48:48;;;;;;;28.90;11.40;;;;;;;2.94;72.93;99847.85;52835;1273;1016637;-62
2022/01/08 11:51:35;;;;;;;25.70;8.70;;;;;;;3.00;73.13;99841.67;52763;1273;1016680;-62
2022/01/08 11:54:10;;;;;;;25.20;8.60;;;;;;;3.04;72.78;99838.58;52798;1270;1016106;-62
2022/01/08 11:56:42;;;;;;;23.30;9.00;;;;;;;3.06;72.68;99837.02;52601;1271;1016225;-63